createdAt,value
2018-06-05T00:01:26.730Z,13.7
2018-06-05T00:02:46.579Z,13.7
2018-06-05T00:04:08.930Z,13.3
2018-06-05T00:05:31.343Z,13.2
2018-06-05T00:06:56.320Z,13.2
2018-06-05T00:08:16.173Z,13.2
2018-06-05T00:09:43.657Z,13.1
2018-06-05T00:11:11.090Z,13.4
2018-06-05T00:12:33.457Z,13.5
2018-06-05T00:13:58.340Z,13.5
2018-06-05T00:15:20.746Z,13.2
2018-06-05T00:16:43.100Z,13.5
2018-06-05T00:18:02.932Z,12.8
2018-06-05T00:19:22.766Z,12.7
2018-06-05T00:20:52.763Z,12.8
2018-06-05T00:22:15.140Z,13.4
2018-06-05T00:23:34.963Z,13.3
2018-06-05T00:24:57.363Z,13.4
2018-06-05T00:26:24.793Z,13
2018-06-05T00:27:59.847Z,13.8
2018-06-05T00:29:19.665Z,13.5
2018-06-05T00:30:39.497Z,13.5
2018-06-05T00:31:59.323Z,13.5
2018-06-05T00:33:19.181Z,13.7
2018-06-05T00:34:44.065Z,13.6
2018-06-05T00:36:03.888Z,13.7
2018-06-05T00:37:23.758Z,13.6
2018-06-05T00:38:43.578Z,13.8
2018-06-05T00:40:05.959Z,13.3
2018-06-05T00:41:25.811Z,12.6
2018-06-05T00:42:50.729Z,13.4
2018-06-05T00:44:10.634Z,13.8
2018-06-05T00:45:32.980Z,13.4
2018-06-05T00:46:55.341Z,13.3
2018-06-05T00:48:15.178Z,13.3
2018-06-05T00:49:47.698Z,13.2
2018-06-05T00:51:07.561Z,13.3
2018-06-05T00:52:27.402Z,13.2
2018-06-05T00:53:47.235Z,13.2
2018-06-05T00:55:07.074Z,13.2
2018-06-05T00:56:31.951Z,13.2
2018-06-05T00:57:56.865Z,13.2
2018-06-05T00:59:16.721Z,13.1
2018-06-05T01:00:39.119Z,13.1
2018-06-05T01:02:16.689Z,13.1
2018-06-05T01:03:36.518Z,13.1
2018-06-05T01:05:01.402Z,13.1
2018-06-05T01:06:21.257Z,13.1
2018-06-05T01:07:41.139Z,13.1
2018-06-05T01:09:11.148Z,13.1
2018-06-05T01:10:41.107Z,13
2018-06-05T01:12:00.994Z,12.3
2018-06-05T01:13:20.852Z,13
2018-06-05T01:14:43.204Z,13
2018-06-05T01:16:03.027Z,12.9
2018-06-05T01:17:27.903Z,12.9
2018-06-05T01:18:50.297Z,13.2
2018-06-05T01:20:10.174Z,13.4
2018-06-05T01:21:30.013Z,13
2018-06-05T01:22:49.835Z,13
2018-06-05T01:24:09.653Z,12.9
2018-06-05T01:25:32.000Z,13
2018-06-05T01:26:51.822Z,12.9
2018-06-05T01:28:11.654Z,13
2018-06-05T01:29:31.474Z,12.9
2018-06-05T01:30:56.409Z,13
2018-06-05T01:32:23.884Z,12.9
2018-06-05T01:33:51.308Z,12.8
2018-06-05T01:35:13.687Z,13
2018-06-05T01:36:38.633Z,12.8
2018-06-05T01:37:58.457Z,12.8
2018-06-05T01:39:23.350Z,13
2018-06-05T01:40:43.247Z,12.9
2018-06-05T01:42:03.063Z,13
2018-06-05T01:43:22.878Z,13
2018-06-05T01:44:42.701Z,12.9
2018-06-05T01:46:02.597Z,12.9
2018-06-05T01:47:22.421Z,12.9
2018-06-05T01:48:54.895Z,12.9
2018-06-05T01:50:14.727Z,12.9
2018-06-05T01:51:34.557Z,12.8
2018-06-05T01:52:56.910Z,12.8
2018-06-05T01:54:16.732Z,12.8
2018-06-05T01:55:39.084Z,12.8
2018-06-05T01:57:01.490Z,12.8
2018-06-05T01:58:21.309Z,12.8
2018-06-05T01:59:41.135Z,13
2018-06-05T02:01:01.016Z,12.9
2018-06-05T02:02:20.867Z,12.9
2018-06-05T02:03:40.722Z,13
2018-06-05T02:05:00.592Z,12.9
2018-06-05T02:06:20.476Z,13
2018-06-05T02:07:42.872Z,12.9
2018-06-05T02:09:07.761Z,13
2018-06-05T02:10:35.191Z,12.8
2018-06-05T02:12:05.165Z,12.8
2018-06-05T02:13:30.127Z,12.8
2018-06-05T02:14:55.044Z,12.8
2018-06-05T02:16:14.876Z,12.7
2018-06-05T02:17:37.292Z,12.7
2018-06-05T02:18:57.131Z,12.8
2018-06-05T02:20:16.997Z,12.6
2018-06-05T02:21:39.364Z,12.7
2018-06-05T02:22:59.245Z,12.7
2018-06-05T02:24:24.124Z,12.8
2018-06-05T02:25:43.948Z,12.8
2018-06-05T02:27:03.780Z,12.9
2018-06-05T02:28:23.612Z,12.9
2018-06-05T02:29:43.483Z,12.9
2018-06-05T02:31:05.862Z,13
2018-06-05T02:32:28.209Z,13.5
2018-06-05T02:33:50.589Z,13.5
2018-06-05T02:35:18.000Z,13.5
2018-06-05T02:36:37.873Z,13.2
2018-06-05T02:38:05.367Z,13.2
2018-06-05T02:39:35.329Z,12.8
2018-06-05T02:40:55.218Z,12.8
2018-06-05T02:42:15.090Z,12.7
2018-06-05T02:43:37.482Z,13.2
2018-06-05T02:45:02.410Z,12.8
2018-06-05T02:46:22.235Z,12.7
2018-06-05T02:47:42.092Z,12.8
2018-06-05T02:49:12.063Z,12.8
2018-06-05T02:50:39.472Z,12.8
2018-06-05T02:51:59.340Z,12
2018-06-05T02:53:19.188Z,11.5
2018-06-05T02:54:44.123Z,11.6
2018-06-05T02:56:09.002Z,12.2
2018-06-05T02:57:28.832Z,12.3
2018-06-05T02:58:48.649Z,11
2018-06-05T03:00:11.008Z,11.1
2018-06-05T03:01:30.902Z,12.2
2018-06-05T03:02:50.778Z,12.5
2018-06-05T03:04:15.689Z,12.7
2018-06-05T03:05:38.033Z,12.4
2018-06-05T03:06:57.855Z,12.4
2018-06-05T03:08:20.266Z,11.3
2018-06-05T03:09:40.110Z,12
2018-06-05T03:11:02.455Z,12
2018-06-05T03:12:22.281Z,11.8
2018-06-05T03:13:44.641Z,12
2018-06-05T03:15:07.062Z,11.6
2018-06-05T03:16:29.438Z,11.4
2018-06-05T03:17:51.802Z,11.3
2018-06-05T03:19:11.645Z,11
2018-06-05T03:20:31.488Z,11.4
2018-06-05T03:22:03.977Z,11.3
2018-06-05T03:23:28.864Z,11.2
2018-06-05T03:25:06.426Z,11.4
2018-06-05T03:26:33.844Z,11.3
2018-06-05T03:28:01.252Z,11
2018-06-05T03:29:23.620Z,11.4
2018-06-05T03:30:45.972Z,11.5
2018-06-05T03:32:05.810Z,11.2
2018-06-05T03:33:28.211Z,11.7
2018-06-05T03:34:53.126Z,11.1
2018-06-05T03:36:15.554Z,11.7
2018-06-05T03:37:35.405Z,11.1
2018-06-05T03:38:57.755Z,11.6
2018-06-05T03:40:17.571Z,11.8
2018-06-05T03:41:42.450Z,11.2
2018-06-05T03:43:07.324Z,12.8
2018-06-05T03:44:27.146Z,12.2
2018-06-05T03:45:57.103Z,12.6
2018-06-05T03:47:21.984Z,12.4
2018-06-05T03:48:44.337Z,12.5
2018-06-05T03:50:16.812Z,12.1
2018-06-05T03:51:36.633Z,12.2
2018-06-05T03:53:04.074Z,10.9
2018-06-05T03:54:26.446Z,12.4
2018-06-05T03:55:46.321Z,12.8
2018-06-05T03:57:28.930Z,11.2
2018-06-05T03:58:48.799Z,11
2018-06-05T04:00:08.649Z,11.5
2018-06-05T04:01:28.514Z,11.3
2018-06-05T04:02:50.874Z,11.3
2018-06-05T04:04:13.232Z,12.2
2018-06-05T04:05:38.160Z,13.2
2018-06-05T04:07:03.036Z,12.7
2018-06-05T04:08:27.976Z,13.4
2018-06-05T04:09:50.362Z,13.3
2018-06-05T04:11:22.839Z,13.7
2018-06-05T04:12:45.231Z,13.6
2018-06-05T04:14:05.083Z,13.6
2018-06-05T04:15:29.993Z,13.6
2018-06-05T04:17:05.058Z,13.6
2018-06-05T04:18:29.976Z,11.9
2018-06-05T04:19:54.896Z,11.3
2018-06-05T04:21:14.814Z,11.1
2018-06-05T04:22:34.722Z,11.4
2018-06-05T04:23:57.079Z,11.3
2018-06-05T04:25:21.961Z,11.5
2018-06-05T04:26:49.373Z,11.6
2018-06-05T04:28:24.449Z,11.6
2018-06-05T04:29:49.333Z,11.6
2018-06-05T04:31:09.225Z,11.9
2018-06-05T04:32:31.587Z,12.3
2018-06-05T04:33:51.417Z,12.2
2018-06-05T04:35:18.878Z,13.1
2018-06-05T04:36:41.270Z,13.1
2018-06-05T04:38:01.138Z,12.9
2018-06-05T04:39:21.016Z,13.5
2018-06-05T04:40:56.081Z,13.1
2018-06-05T04:42:18.439Z,13.5
2018-06-05T04:43:38.264Z,13.5
2018-06-05T04:45:00.626Z,13.5
2018-06-05T04:46:25.499Z,13.6
2018-06-05T04:47:45.369Z,13.6
2018-06-05T04:49:05.238Z,13.6
2018-06-05T04:50:25.131Z,13.6
2018-06-05T04:52:02.742Z,13.6
2018-06-05T04:53:22.576Z,13.6
2018-06-05T04:54:42.394Z,13.7
2018-06-05T04:56:04.818Z,13.6
2018-06-05T04:57:24.673Z,13.1
2018-06-05T04:58:44.587Z,14.2
2018-06-05T05:00:04.483Z,14.2
2018-06-05T05:01:24.319Z,14.2
2018-06-05T05:02:46.718Z,14.2
2018-06-05T05:04:11.626Z,14.2
2018-06-05T05:05:34.039Z,14.2
2018-06-05T05:06:53.890Z,14.3
2018-06-05T05:08:16.249Z,14.2
2018-06-05T05:09:43.658Z,14.2
2018-06-05T05:11:06.024Z,14.2
2018-06-05T05:12:33.459Z,14
2018-06-05T05:13:55.860Z,14.1
2018-06-05T05:15:15.683Z,14.2
2018-06-05T05:16:35.508Z,13.3
2018-06-05T05:17:55.381Z,14.4
2018-06-05T05:19:20.276Z,14.2
2018-06-05T05:20:40.127Z,14.1
2018-06-05T05:22:05.079Z,14
2018-06-05T05:23:27.466Z,14.1
2018-06-05T05:24:47.326Z,14.2
2018-06-05T05:26:09.717Z,14.5
2018-06-05T05:27:29.592Z,13.9
2018-06-05T05:28:54.551Z,14.4
2018-06-05T05:30:14.425Z,14.2
2018-06-05T05:31:36.780Z,14.3
2018-06-05T05:33:04.260Z,14.4
2018-06-05T05:34:24.090Z,14.2
2018-06-05T05:35:49.141Z,14.3
2018-06-05T05:37:08.995Z,12.3
2018-06-05T05:38:31.411Z,12.4
2018-06-05T05:39:53.798Z,13.7
2018-06-05T05:41:18.684Z,14.3
2018-06-05T05:42:38.515Z,14.1
2018-06-05T05:43:58.347Z,14.2
2018-06-05T05:45:28.299Z,14.2
2018-06-05T05:46:50.657Z,14.2
2018-06-05T05:48:15.536Z,14.3
2018-06-05T05:49:50.594Z,14.3
2018-06-05T05:51:10.420Z,14.2
2018-06-05T05:52:32.829Z,14.2
2018-06-05T05:54:05.316Z,14.3
2018-06-05T05:55:32.728Z,14
2018-06-05T05:56:52.608Z,14.2
2018-06-05T05:58:12.423Z,14.2
2018-06-05T05:59:32.314Z,14.5
2018-06-05T06:01:02.282Z,14.4
2018-06-05T06:02:22.106Z,14.2
2018-06-05T06:03:54.683Z,14.1
2018-06-05T06:05:24.668Z,14.3
2018-06-05T06:06:44.588Z,14.4
2018-06-05T06:08:12.005Z,14.4
2018-06-05T06:09:31.864Z,14.4
2018-06-05T06:10:51.757Z,14.4
2018-06-05T06:12:14.240Z,14.5
2018-06-05T06:13:41.702Z,14.5
2018-06-05T06:15:01.582Z,14.5
2018-06-05T06:16:21.442Z,14.5
2018-06-05T06:17:41.264Z,14.7
2018-06-05T06:19:01.088Z,14.8
2018-06-05T06:20:20.912Z,14.9
2018-06-05T06:21:43.270Z,14.8
2018-06-05T06:23:10.684Z,14.9
2018-06-05T06:24:35.581Z,15
2018-06-05T06:25:55.428Z,15
2018-06-05T06:27:15.273Z,15
2018-06-05T06:28:37.683Z,14.9
2018-06-05T06:29:57.500Z,15
2018-06-05T06:31:17.373Z,15
2018-06-05T06:32:44.828Z,14.8
2018-06-05T06:34:04.681Z,14.9
2018-06-05T06:35:29.599Z,14.9
2018-06-05T06:36:49.443Z,14.9
2018-06-05T06:38:09.340Z,14.9
2018-06-05T06:39:31.712Z,15.1
2018-06-05T06:40:56.629Z,15.1
2018-06-05T06:42:16.459Z,15.1
2018-06-05T06:43:38.822Z,15.1
2018-06-05T06:45:03.756Z,15.1
2018-06-05T06:46:23.634Z,15.1
2018-06-05T06:47:43.458Z,14.8
2018-06-05T06:49:03.330Z,14.9
2018-06-05T06:50:25.753Z,14.8
2018-06-05T06:51:48.113Z,14.9
2018-06-05T06:53:07.966Z,15
2018-06-05T06:54:27.818Z,14.8
2018-06-05T06:55:50.178Z,14.7
2018-06-05T06:57:10.008Z,14.9
2018-06-05T06:58:29.910Z,15.2
2018-06-05T06:59:52.325Z,15.3
2018-06-05T07:01:12.161Z,15.1
2018-06-05T07:02:31.974Z,14.8
2018-06-05T07:03:54.417Z,14.5
2018-06-05T07:05:16.774Z,14.9
2018-06-05T07:06:39.200Z,14.4
2018-06-05T07:08:01.564Z,14.7
2018-06-05T07:09:23.940Z,14.7
2018-06-05T07:10:46.283Z,14.8
2018-06-05T07:12:18.828Z,14.8
2018-06-05T07:13:46.252Z,14.3
2018-06-05T07:15:06.080Z,15.3
2018-06-05T07:16:25.898Z,15.3
2018-06-05T07:17:50.793Z,14.7
2018-06-05T07:19:13.149Z,15.4
2018-06-05T07:20:38.025Z,15.5
2018-06-05T07:22:00.370Z,15.5
2018-06-05T07:23:20.213Z,15.5
2018-06-05T07:24:40.048Z,15.5
2018-06-05T07:26:15.060Z,15.4
2018-06-05T07:27:37.408Z,15.4
2018-06-05T07:29:07.351Z,15.4
2018-06-05T07:30:29.793Z,14.9
2018-06-05T07:31:49.712Z,15.6
2018-06-05T07:33:12.064Z,15.5
2018-06-05T07:34:34.449Z,15.5
2018-06-05T07:35:54.354Z,15.4
2018-06-05T07:37:21.770Z,15.5
2018-06-05T07:38:41.591Z,15.4
2018-06-05T07:40:01.437Z,15.6
2018-06-05T07:41:23.883Z,15.9
2018-06-05T07:42:46.299Z,15.9
2018-06-05T07:44:11.210Z,15.8
2018-06-05T07:45:31.025Z,15.8
2018-06-05T07:46:50.878Z,15.8
2018-06-05T07:48:13.290Z,15.8
2018-06-05T07:49:40.743Z,15.9
2018-06-05T07:51:00.629Z,15.9
2018-06-05T07:52:22.998Z,15.9
2018-06-05T07:53:42.876Z,16
2018-06-05T07:55:10.328Z,16
2018-06-05T07:56:30.212Z,16
2018-06-05T07:57:55.119Z,16
2018-06-05T07:59:14.939Z,16.7
2018-06-05T08:00:34.805Z,16.8
2018-06-05T08:01:57.155Z,16.7
2018-06-05T08:03:19.545Z,16.1
2018-06-05T08:04:39.442Z,16.3
2018-06-05T08:05:59.340Z,16.4
2018-06-05T08:07:24.261Z,16.6
2018-06-05T08:08:46.621Z,16.5
2018-06-05T08:10:16.572Z,16.5
2018-06-05T08:11:36.405Z,16.3
2018-06-05T08:12:56.248Z,16.3
2018-06-05T08:14:23.730Z,16.1
2018-06-05T08:15:51.151Z,16.5
2018-06-05T08:17:10.976Z,16.4
2018-06-05T08:18:33.339Z,16.3
2018-06-05T08:19:55.751Z,16.6
2018-06-05T08:21:15.575Z,16.3
2018-06-05T08:22:35.402Z,16.2
2018-06-05T08:23:55.230Z,16.1
2018-06-05T08:25:22.646Z,16.1
2018-06-05T08:26:50.055Z,16
2018-06-05T08:28:12.402Z,16.3
2018-06-05T08:29:39.817Z,16.7
2018-06-05T08:30:59.647Z,16.7
2018-06-05T08:32:24.579Z,16.8
2018-06-05T08:33:49.514Z,16.9
2018-06-05T08:35:16.924Z,17
2018-06-05T08:36:36.751Z,17
2018-06-05T08:38:16.809Z,16.9
2018-06-05T08:39:39.182Z,16.9
2018-06-05T08:40:59.034Z,17
2018-06-05T08:42:18.908Z,17
2018-06-05T08:43:41.250Z,17.1
2018-06-05T08:45:01.068Z,16.5
2018-06-05T08:46:20.889Z,16.9
2018-06-05T08:47:45.822Z,17.1
2018-06-05T08:49:05.667Z,17.1
2018-06-05T08:50:25.487Z,17.1
2018-06-05T08:51:45.354Z,17.1
2018-06-05T08:53:05.226Z,17.1
2018-06-05T08:54:25.082Z,17.1
2018-06-05T08:55:44.922Z,16.4
2018-06-05T08:57:04.799Z,16.2
2018-06-05T08:58:27.167Z,16.3
2018-06-05T08:59:52.086Z,16.3
2018-06-05T09:01:11.972Z,16.5
2018-06-05T09:02:39.447Z,16
2018-06-05T09:03:59.325Z,16.6
2018-06-05T09:05:21.698Z,16.5
2018-06-05T09:06:41.583Z,16.8
2018-06-05T09:08:01.404Z,16.4
2018-06-05T09:09:21.284Z,17.1
2018-06-05T09:10:41.154Z,16.9
2018-06-05T09:12:01.013Z,17.1
2018-06-05T09:13:25.905Z,17
2018-06-05T09:14:48.285Z,16.9
2018-06-05T09:16:08.172Z,17
2018-06-05T09:17:28.067Z,17
2018-06-05T09:18:47.882Z,17.1
2018-06-05T09:20:07.764Z,17.1
2018-06-05T09:21:27.623Z,17
2018-06-05T09:22:47.449Z,17.2
2018-06-05T09:24:27.543Z,17.3
2018-06-05T09:25:49.914Z,17.4
2018-06-05T09:27:09.736Z,17.2
2018-06-05T09:28:29.565Z,17.5
2018-06-05T09:29:57.025Z,17.6
2018-06-05T09:31:16.844Z,18
2018-06-05T09:32:39.255Z,16.9
2018-06-05T09:33:59.127Z,16.7
2018-06-05T09:35:29.103Z,17.3
2018-06-05T09:36:51.459Z,17.7
2018-06-05T09:38:16.345Z,17.4
2018-06-05T09:39:36.231Z,17.4
2018-06-05T09:40:56.060Z,16.5
2018-06-05T09:42:15.933Z,17.7
2018-06-05T09:43:35.751Z,17.8
2018-06-05T09:45:00.661Z,17.6
2018-06-05T09:46:20.480Z,17.5
2018-06-05T09:47:40.309Z,17.5
2018-06-05T09:49:00.135Z,17.4
2018-06-05T09:50:25.065Z,17.5
2018-06-05T09:51:49.951Z,17.8
2018-06-05T09:53:09.777Z,17.1
2018-06-05T09:54:34.662Z,17.3
2018-06-05T09:55:57.023Z,18.2
2018-06-05T09:57:34.588Z,18.3
2018-06-05T09:58:54.449Z,18.6
2018-06-05T10:00:16.824Z,17.8
2018-06-05T10:01:36.710Z,17.9
2018-06-05T10:02:56.529Z,18
2018-06-05T10:04:19.016Z,18
2018-06-05T10:05:41.442Z,17.6
2018-06-05T10:07:01.262Z,18.1
2018-06-05T10:08:21.085Z,17.6
2018-06-05T10:09:40.906Z,19.7
2018-06-05T10:11:13.441Z,19.4
2018-06-05T10:12:40.907Z,20.1
2018-06-05T10:14:00.781Z,20
2018-06-05T10:15:25.658Z,19.9
2018-06-05T10:16:45.537Z,20
2018-06-05T10:18:12.976Z,19.8
2018-06-05T10:19:40.465Z,19.2
2018-06-05T10:21:05.354Z,19.2
2018-06-05T10:22:30.246Z,19.4
2018-06-05T10:23:50.065Z,20.7
2018-06-05T10:25:12.428Z,20.8
2018-06-05T10:26:39.882Z,20.8
2018-06-05T10:27:59.710Z,20.9
2018-06-05T10:29:19.534Z,20.8
2018-06-05T10:30:44.454Z,20.9
2018-06-05T10:32:19.465Z,20.9
2018-06-05T10:33:39.293Z,21
2018-06-05T10:34:59.114Z,20.8
2018-06-05T10:36:19.001Z,20.8
2018-06-05T10:37:41.399Z,20.4
2018-06-05T10:39:03.785Z,19.9
2018-06-05T10:40:23.673Z,19.9
2018-06-05T10:41:43.520Z,20.4
2018-06-05T10:43:08.431Z,20.4
2018-06-05T10:44:28.286Z,20.4
2018-06-05T10:45:48.144Z,20.4
2018-06-05T10:47:10.510Z,20.4
2018-06-05T10:48:32.891Z,20.5
2018-06-05T10:50:00.330Z,20.5
2018-06-05T10:51:22.715Z,20.5
2018-06-05T10:52:47.612Z,20.5
2018-06-05T10:54:17.558Z,20.5
2018-06-05T10:55:39.912Z,20.5
2018-06-05T10:56:59.733Z,20.5
2018-06-05T10:58:24.690Z,20.5
2018-06-05T10:59:54.621Z,20.6
2018-06-05T11:01:14.447Z,20.6
2018-06-05T11:02:36.803Z,20.6
2018-06-05T11:03:56.644Z,20.6
2018-06-05T11:05:36.706Z,20.6
2018-06-05T11:07:09.232Z,20.6
2018-06-05T11:08:29.060Z,20.6
2018-06-05T11:09:48.887Z,20.6
2018-06-05T11:11:13.812Z,20.6
2018-06-05T11:12:38.731Z,20.6
2018-06-05T11:13:58.588Z,20.8
2018-06-05T11:15:20.937Z,20.6
2018-06-05T11:16:55.929Z,20.6
2018-06-05T11:18:20.846Z,20.7
2018-06-05T11:19:40.737Z,20.6
2018-06-05T11:21:05.614Z,20.7
2018-06-05T11:22:28.036Z,20.7
2018-06-05T11:23:47.937Z,20.7
2018-06-05T11:25:07.860Z,20.6
2018-06-05T11:26:27.746Z,20.7
2018-06-05T11:27:47.587Z,20.6
2018-06-05T11:29:12.524Z,20.7
2018-06-05T11:30:37.409Z,20.7
2018-06-05T11:32:04.827Z,20.8
2018-06-05T11:33:29.744Z,20.8
2018-06-05T11:34:49.599Z,20.9
2018-06-05T11:36:12.000Z,20.8
2018-06-05T11:37:34.415Z,19.5
2018-06-05T11:38:56.762Z,19.9
2018-06-05T11:40:19.149Z,19.1
2018-06-05T11:41:39.015Z,22.2
2018-06-05T11:42:58.877Z,22.1
2018-06-05T11:44:18.746Z,22
2018-06-05T11:45:41.119Z,22
2018-06-05T11:47:01.000Z,22
2018-06-05T11:48:20.818Z,22
2018-06-05T11:49:40.638Z,22.1
2018-06-05T11:51:05.555Z,22.1
2018-06-05T11:52:27.937Z,22.1
2018-06-05T11:53:57.972Z,22.2
2018-06-05T11:55:17.830Z,22.2
2018-06-05T11:56:37.670Z,22.2
2018-06-05T11:58:00.023Z,22.1
2018-06-05T11:59:24.914Z,22.1
2018-06-05T12:00:44.743Z,22.1
2018-06-05T12:02:04.573Z,21.9
2018-06-05T12:03:29.508Z,21.8
2018-06-05T12:04:49.339Z,21.7
2018-06-05T12:06:14.271Z,21.6
2018-06-05T12:07:34.094Z,21.4
2018-06-05T12:08:53.927Z,21.7
2018-06-05T12:10:13.766Z,21.8
2018-06-05T12:11:38.691Z,21.8
2018-06-05T12:13:06.110Z,21.9
2018-06-05T12:14:36.054Z,22
2018-06-05T12:16:03.521Z,21.9
2018-06-05T12:17:25.878Z,22
2018-06-05T12:18:45.706Z,22
2018-06-05T12:20:08.101Z,22
2018-06-05T12:21:35.518Z,22.1
2018-06-05T12:23:18.147Z,22.2
2018-06-05T12:24:38.033Z,22.2
2018-06-05T12:26:00.385Z,22.2
2018-06-05T12:27:20.214Z,22.3
2018-06-05T12:28:42.596Z,22.4
2018-06-05T12:30:02.442Z,22.4
2018-06-05T12:31:24.885Z,22.4
2018-06-05T12:32:44.756Z,22.5
2018-06-05T12:34:04.606Z,22.5
2018-06-05T12:35:34.578Z,22.5
2018-06-05T12:36:54.457Z,22.5
2018-06-05T12:38:21.882Z,22.5
2018-06-05T12:39:44.265Z,22.5
2018-06-05T12:41:06.630Z,22.6
2018-06-05T12:42:26.471Z,22.8
2018-06-05T12:43:46.343Z,22.9
2018-06-05T12:45:08.702Z,22.8
2018-06-05T12:46:36.140Z,22.9
2018-06-05T12:48:03.557Z,23.1
2018-06-05T12:49:23.411Z,23
2018-06-05T12:50:43.270Z,23.1
2018-06-05T12:52:03.147Z,23.1
2018-06-05T12:53:30.605Z,23.1
2018-06-05T12:54:58.048Z,23.4
2018-06-05T12:56:17.902Z,23.4
2018-06-05T12:57:37.769Z,23.7
2018-06-05T12:58:57.619Z,23.7
2018-06-05T13:00:19.997Z,23.6
2018-06-05T13:01:42.358Z,23.6
2018-06-05T13:03:02.259Z,23.6
2018-06-05T13:04:22.163Z,23.8
2018-06-05T13:05:41.990Z,23.9
2018-06-05T13:07:04.338Z,23.7
2018-06-05T13:08:24.161Z,23.7
2018-06-05T13:09:46.583Z,23.7
2018-06-05T13:11:06.436Z,23.7
2018-06-05T13:12:28.807Z,23.7
2018-06-05T13:13:53.698Z,23.8
2018-06-05T13:15:13.521Z,23.9
2018-06-05T13:16:35.933Z,24.1
2018-06-05T13:18:00.821Z,24.2
2018-06-05T13:19:30.757Z,23.5
2018-06-05T13:20:53.126Z,23.5
2018-06-05T13:22:12.977Z,23.4
2018-06-05T13:23:32.829Z,21.6
2018-06-05T13:24:52.743Z,25.3
2018-06-05T13:26:12.650Z,25.3
2018-06-05T13:27:42.626Z,25.2
2018-06-05T13:29:07.559Z,25.3
2018-06-05T13:30:29.909Z,25.4
2018-06-05T13:31:52.329Z,25.6
2018-06-05T13:33:12.181Z,25.8
2018-06-05T13:34:37.126Z,26
2018-06-05T13:36:04.612Z,24.9
2018-06-05T13:37:24.484Z,25
2018-06-05T13:38:44.308Z,24.9
2018-06-05T13:40:04.124Z,24.7
2018-06-05T13:41:31.543Z,24.6
2018-06-05T13:43:01.515Z,24.7
2018-06-05T13:44:21.341Z,24.6
2018-06-05T13:45:48.809Z,24.6
2018-06-05T13:47:08.640Z,24.4
2018-06-05T13:48:30.995Z,24.3
2018-06-05T13:49:53.359Z,24.3
2018-06-05T13:51:13.216Z,24.2
2018-06-05T13:52:40.665Z,25.6
2018-06-05T13:54:00.537Z,25.3
2018-06-05T13:55:20.364Z,25.3
2018-06-05T13:56:40.239Z,25.1
2018-06-05T13:58:00.076Z,25
2018-06-05T13:59:19.911Z,25.1
2018-06-05T14:00:42.319Z,25.4
2018-06-05T14:02:04.672Z,25.4
2018-06-05T14:03:24.496Z,25.2
2018-06-05T14:04:49.402Z,25
2018-06-05T14:06:14.303Z,24.9
2018-06-05T14:07:39.190Z,25
2018-06-05T14:09:09.167Z,24
2018-06-05T14:10:41.733Z,25.6
2018-06-05T14:12:04.126Z,25.6
2018-06-05T14:13:23.946Z,25.6
2018-06-05T14:14:43.848Z,25.7
2018-06-05T14:16:03.697Z,25.8
2018-06-05T14:17:26.053Z,26
2018-06-05T14:18:45.924Z,24.9
2018-06-05T14:20:05.790Z,24.5
2018-06-05T14:21:25.606Z,24.5
2018-06-05T14:22:45.457Z,24.5
2018-06-05T14:24:05.282Z,24.8
2018-06-05T14:25:25.158Z,24.8
2018-06-05T14:26:47.542Z,24.7
2018-06-05T14:28:07.412Z,24.6
2018-06-05T14:29:29.768Z,24.5
2018-06-05T14:30:59.712Z,24.5
2018-06-05T14:32:22.111Z,24.5
2018-06-05T14:33:41.969Z,23.9
2018-06-05T14:35:04.413Z,24.7
2018-06-05T14:36:24.237Z,24.7
2018-06-05T14:37:46.588Z,25
2018-06-05T14:39:06.424Z,25.1
2018-06-05T14:40:26.247Z,24.8
2018-06-05T14:41:53.680Z,25
2018-06-05T14:43:21.126Z,24.9
2018-06-05T14:44:40.945Z,24.9
2018-06-05T14:46:00.777Z,24.7
2018-06-05T14:47:23.143Z,24.9
2018-06-05T14:48:48.031Z,24.8
2018-06-05T14:50:10.380Z,24.6
2018-06-05T14:51:32.754Z,24.7
2018-06-05T14:52:52.608Z,24.6
2018-06-05T14:54:12.511Z,24.6
2018-06-05T14:55:34.892Z,24.4
2018-06-05T14:56:54.741Z,24.4
2018-06-05T14:58:14.608Z,24.4
2018-06-05T14:59:44.544Z,24.2
2018-06-05T15:01:11.984Z,24.2
2018-06-05T15:02:34.338Z,24.1
2018-06-05T15:03:59.262Z,24.1
2018-06-05T15:05:19.079Z,24.1
2018-06-05T15:06:38.919Z,24.1
2018-06-05T15:07:58.756Z,24.1
2018-06-05T15:09:18.579Z,24
2018-06-05T15:10:38.402Z,24
2018-06-05T15:11:58.286Z,23.9
2018-06-05T15:13:28.264Z,24
2018-06-05T15:14:53.196Z,23.9
2018-06-05T15:16:13.079Z,23.8
2018-06-05T15:17:32.922Z,23.8
2018-06-05T15:18:57.866Z,23.8
2018-06-05T15:20:17.750Z,23.7
2018-06-05T15:21:40.104Z,23.7
2018-06-05T15:23:02.485Z,23.6
2018-06-05T15:24:22.339Z,23.6
2018-06-05T15:25:52.349Z,23.6
2018-06-05T15:27:14.706Z,23.7
2018-06-05T15:28:37.084Z,23.5
2018-06-05T15:29:59.493Z,23.5
2018-06-05T15:31:21.860Z,23.4
2018-06-05T15:32:44.236Z,23.4
2018-06-05T15:34:04.184Z,23.3
2018-06-05T15:35:24.036Z,23.3
2018-06-05T15:36:46.384Z,23.2
2018-06-05T15:38:06.207Z,23.3
2018-06-05T15:39:31.098Z,23.3
2018-06-05T15:40:50.978Z,23.3
2018-06-05T15:42:13.345Z,23.2
2018-06-05T15:43:33.170Z,23.2
2018-06-05T15:44:55.567Z,23.1
2018-06-05T15:46:15.389Z,23.1
2018-06-05T15:47:35.225Z,23
2018-06-05T15:48:55.091Z,23
2018-06-05T15:50:14.912Z,23
2018-06-05T15:51:42.363Z,23.1
2018-06-05T15:53:02.212Z,23
2018-06-05T15:54:22.102Z,23
2018-06-05T15:55:44.519Z,23
2018-06-05T15:57:06.898Z,22.9
2018-06-05T15:58:26.776Z,22.9
2018-06-05T15:59:46.636Z,22.9
2018-06-05T16:01:06.529Z,22.8
2018-06-05T16:02:26.433Z,22.8
2018-06-05T16:03:46.253Z,22.8
2018-06-05T16:05:16.234Z,22.9
2018-06-05T16:06:43.697Z,22.9
2018-06-05T16:08:11.102Z,23
2018-06-05T16:09:30.937Z,23
2018-06-05T16:10:58.347Z,23.1
2018-06-05T16:12:20.764Z,23.1
2018-06-05T16:13:40.591Z,23.1
2018-06-05T16:15:00.419Z,23.2
2018-06-05T16:16:20.248Z,23.2
2018-06-05T16:17:42.607Z,23.2
2018-06-05T16:19:04.964Z,23.3
2018-06-05T16:20:32.456Z,23.3
2018-06-05T16:21:52.318Z,23.4
2018-06-05T16:23:12.227Z,23.5
2018-06-05T16:24:34.576Z,23.6
2018-06-05T16:25:59.500Z,23.6
2018-06-05T16:27:19.334Z,23.6
2018-06-05T16:28:39.156Z,23.5
2018-06-05T16:29:58.993Z,23.6
2018-06-05T16:31:18.819Z,23.6
2018-06-05T16:32:41.168Z,23.6
2018-06-05T16:34:00.994Z,23.7
2018-06-05T16:35:20.826Z,23.7
2018-06-05T16:36:43.185Z,23.7
2018-06-05T16:38:10.630Z,23.7
2018-06-05T16:39:30.461Z,23.7
2018-06-05T16:40:50.284Z,23.6
2018-06-05T16:42:10.178Z,23.6
2018-06-05T16:43:37.676Z,23.6
2018-06-05T16:45:00.093Z,23.5
2018-06-05T16:46:19.919Z,23.5
2018-06-05T16:47:44.845Z,23.5
2018-06-05T16:49:04.705Z,23.5
2018-06-05T16:50:24.552Z,23.5
2018-06-05T16:51:44.375Z,23.4
2018-06-05T16:53:06.794Z,23.3
2018-06-05T16:54:29.148Z,23.3
2018-06-05T16:55:51.586Z,23.3
2018-06-05T16:57:18.992Z,23.4
2018-06-05T16:58:41.409Z,23.3
2018-06-05T17:00:03.769Z,23.3
2018-06-05T17:01:23.595Z,23.3
2018-06-05T17:02:51.016Z,23.3
2018-06-05T17:04:10.851Z,23.3
2018-06-05T17:05:33.209Z,23.3
2018-06-05T17:06:53.036Z,23.2
2018-06-05T17:08:15.391Z,23.1
2018-06-05T17:09:35.211Z,23.1
2018-06-05T17:11:05.161Z,23.1
2018-06-05T17:12:25.025Z,23.5
2018-06-05T17:13:44.846Z,23.3
2018-06-05T17:15:04.667Z,23.3
2018-06-05T17:16:37.161Z,23.5
2018-06-05T17:17:59.549Z,22.9
2018-06-05T17:19:19.426Z,23
2018-06-05T17:20:39.249Z,23.2
2018-06-05T17:22:06.703Z,23.2
2018-06-05T17:23:31.614Z,22.4
2018-06-05T17:25:14.238Z,23
2018-06-05T17:26:36.633Z,22.9
2018-06-05T17:28:09.117Z,23
2018-06-05T17:29:28.996Z,23.1
2018-06-05T17:30:48.822Z,23.1
2018-06-05T17:32:08.637Z,23.1
2018-06-05T17:33:48.730Z,22.2
2018-06-05T17:35:08.582Z,22.4
2018-06-05T17:36:28.411Z,22.6
2018-06-05T17:37:53.291Z,22.5
2018-06-05T17:39:18.224Z,22.4
2018-06-05T17:40:43.127Z,22.4
2018-06-05T17:42:08.013Z,21.8
2018-06-05T17:43:27.833Z,22.3
2018-06-05T17:44:47.652Z,21.9
2018-06-05T17:46:07.518Z,22.5
2018-06-05T17:47:27.348Z,22.8
2018-06-05T17:48:52.245Z,23.1
2018-06-05T17:50:22.222Z,22.6
2018-06-05T17:51:52.224Z,22.5
2018-06-05T17:53:22.205Z,22.5
2018-06-05T17:54:42.107Z,22.2
2018-06-05T17:56:01.971Z,22.5
2018-06-05T17:57:34.468Z,22.5
2018-06-05T17:58:56.851Z,22.4
2018-06-05T18:00:16.726Z,21.3
2018-06-05T18:01:36.580Z,22.2
2018-06-05T18:03:04.019Z,22.2
2018-06-05T18:04:23.841Z,22.1
2018-06-05T18:05:46.217Z,22.1
2018-06-05T18:07:11.143Z,22
2018-06-05T18:08:31.046Z,22
2018-06-05T18:09:50.918Z,22
2018-06-05T18:11:15.857Z,21.9
2018-06-05T18:12:35.849Z,21.9
2018-06-05T18:14:00.739Z,21.8
2018-06-05T18:15:20.616Z,21.7
2018-06-05T18:16:53.117Z,21.7
2018-06-05T18:18:15.526Z,21.6
2018-06-05T18:19:35.350Z,21.5
2018-06-05T18:20:55.240Z,21.5
2018-06-05T18:22:15.114Z,21.4
2018-06-05T18:24:00.229Z,21.4
2018-06-05T18:25:20.049Z,21.5
2018-06-05T18:26:39.903Z,21.4
2018-06-05T18:28:04.867Z,21.4
2018-06-05T18:29:32.348Z,21.4
2018-06-05T18:30:54.766Z,21.3